sensor_id;sensor_type;location;lat;lon;timestamp;pressure;altitude;pressure_sealevel;temperature;humidity
77431;BME280;66498;48.564;19.272;2022-12-29T18:06:39;97880.78;;;-0.63;86.87
77431;BME280;66498;48.564;19.272;2022-12-29T18:09:05;97880.81;;;-0.73;87.35
77431;BME280;66498;48.564;19.272;2022-12-29T18:11:33;97885.13;;;-0.63;86.93
77431;BME280;66498;48.564;19.272;2022-12-29T18:14:00;97886.63;;;-0.61;87.25
77431;BME280;66498;48.564;19.272;2022-12-29T18:16:26;97881.31;;;-0.59;87.17
77431;BME280;66498;48.564;19.272;2022-12-29T18:18:51;97877.69;;;-0.66;87.14
77431;BME280;66498;48.564;19.272;2022-12-29T18:21:20;97869.97;;;-0.76;87.99
77431;BME280;66498;48.564;19.272;2022-12-29T18:23:47;97870.91;;;-0.67;87.44
77431;BME280;66498;48.564;19.272;2022-12-29T18:26:19;97891.63;;;-0.59;86.60
77431;BME280;66498;48.564;19.272;2022-12-29T18:28:45;97884.09;;;-0.43;86.26
77431;BME280;66498;48.564;19.272;2022-12-29T18:33:45;97881.22;;;-0.12;84.04
77431;BME280;66498;48.564;19.272;2022-12-29T18:36:11;97875.34;;;-0.32;84.84
77431;BME280;66498;48.564;19.272;2022-12-29T18:38:38;97875.78;;;-0.37;84.99
77431;BME280;66498;48.564;19.272;2022-12-29T18:41:04;97870.38;;;-0.16;84.56
77431;BME280;66498;48.564;19.272;2022-12-29T18:43:30;97866.69;;;-0.41;85.65
77431;BME280;66498;48.564;19.272;2022-12-29T18:45:56;97876.97;;;-0.31;85.93
77431;BME280;66498;48.564;19.272;2022-12-29T18:48:21;97879.06;;;-0.44;86.53
77431;BME280;66498;48.564;19.272;2022-12-29T18:50:48;97867.47;;;-0.58;87.24
77431;BME280;66498;48.564;19.272;2022-12-29T18:53:22;97859.41;;;-0.45;86.18
77431;BME280;66498;48.564;19.272;2022-12-29T18:55:50;97859.19;;;-0.62;87.05
77431;BME280;66498;48.564;19.272;2022-12-29T18:58:16;97849.50;;;-0.22;85.11
77431;BME280;66498;48.564;19.272;2022-12-29T19:00:42;97851.94;;;-0.49;86.29
77431;BME280;66498;48.564;19.272;2022-12-29T19:03:11;97852.81;;;-0.58;86.33
77431;BME280;66498;48.564;19.272;2022-12-29T19:05:39;97848.16;;;-0.82;87.71
77431;BME280;66498;48.564;19.272;2022-12-29T19:08:05;97851.97;;;-0.86;87.99
77431;BME280;66498;48.564;19.272;2022-12-29T19:10:32;97847.78;;;-0.87;88.00
77431;BME280;66498;48.564;19.272;2022-12-29T19:12:57;97836.38;;;-0.84;87.86
77431;BME280;66498;48.564;19.272;2022-12-29T19:17:54;97842.16;;;-0.45;85.45
77431;BME280;66498;48.564;19.272;2022-12-29T19:22:59;97837.81;;;-0.44;86.03
77431;BME280;66498;48.564;19.272;2022-12-29T19:25:25;97839.09;;;-0.31;85.35
77431;BME280;66498;48.564;19.272;2022-12-29T19:27:51;97840.72;;;-0.30;85.12
77431;BME280;66498;48.564;19.272;2022-12-29T19:30:18;97829.38;;;-0.64;86.67
77431;BME280;66498;48.564;19.272;2022-12-29T19:32:47;97831.00;;;-0.63;86.83
77431;BME280;66498;48.564;19.272;2022-12-29T19:35:13;97826.41;;;-0.69;86.94
77431;BME280;66498;48.564;19.272;2022-12-29T19:37:39;97824.09;;;-0.73;87.19
77431;BME280;66498;48.564;19.272;2022-12-29T19:40:12;97823.34;;;-0.83;86.71
77431;BME280;66498;48.564;19.272;2022-12-29T19:42:38;97822.84;;;-0.96;87.32
77431;BME280;66498;48.564;19.272;2022-12-29T19:45:05;97828.13;;;-0.60;85.27
77431;BME280;66498;48.564;19.272;2022-12-29T19:47:32;97827.38;;;-0.70;85.22
77431;BME280;66498;48.564;19.272;2022-12-29T19:49:58;97827.50;;;-1.09;87.56
77431;BME280;66498;48.564;19.272;2022-12-29T19:52:24;97830.41;;;-1.22;87.55
77431;BME280;66498;48.564;19.272;2022-12-29T19:54:51;97831.06;;;-1.20;87.70
77431;BME280;66498;48.564;19.272;2022-12-29T19:57:18;97833.13;;;-1.43;87.35
77431;BME280;66498;48.564;19.272;2022-12-29T19:59:43;97830.97;;;-1.38;87.35
77431;BME280;66498;48.564;19.272;2022-12-29T20:02:31;97832.31;;;-1.44;87.39
77431;BME280;66498;48.564;19.272;2022-12-29T20:04:59;97836.03;;;-1.56;87.46
77431;BME280;66498;48.564;19.272;2022-12-29T20:07:25;97833.56;;;-1.57;87.26
77431;BME280;66498;48.564;19.272;2022-12-29T20:09:52;97845.50;;;-1.76;87.82
77431;BME280;66498;48.564;19.272;2022-12-29T20:12:18;97850.13;;;-1.79;88.35
77431;BME280;66498;48.564;19.272;2022-12-29T20:14:44;97845.91;;;-1.80;88.24
77431;BME280;66498;48.564;19.272;2022-12-29T20:17:12;97849.44;;;-1.81;88.47
77431;BME280;66498;48.564;19.272;2022-12-29T20:19:38;97845.34;;;-1.84;88.25
77431;BME280;66498;48.564;19.272;2022-12-29T20:22:06;97856.75;;;-1.67;87.40
77431;BME280;66498;48.564;19.272;2022-12-29T20:24:33;97853.78;;;-1.82;87.72
77431;BME280;66498;48.564;19.272;2022-12-29T20:26:59;97844.56;;;-1.84;88.23
77431;BME280;66498;48.564;19.272;2022-12-29T20:29:30;97836.56;;;-1.91;88.61
77431;BME280;66498;48.564;19.272;2022-12-29T20:32:04;97839.66;;;-1.97;88.86
77431;BME280;66498;48.564;19.272;2022-12-29T20:34:30;97832.50;;;-2.13;89.41
77431;BME280;66498;48.564;19.272;2022-12-29T20:36:55;97836.16;;;-2.06;89.39
77431;BME280;66498;48.564;19.272;2022-12-29T20:39:21;97843.34;;;-2.00;89.07
77431;BME280;66498;48.564;19.272;2022-12-29T20:41:47;97849.03;;;-1.96;88.79
77431;BME280;66498;48.564;19.272;2022-12-29T20:44:12;97846.56;;;-1.98;88.94
77431;BME280;66498;48.564;19.272;2022-12-29T20:46:41;97852.81;;;-2.00;89.38
77431;BME280;66498;48.564;19.272;2022-12-29T20:49:07;97847.53;;;-1.79;88.81
77431;BME280;66498;48.564;19.272;2022-12-29T20:51:33;97843.06;;;-1.87;89.36
77431;BME280;66498;48.564;19.272;2022-12-29T20:54:01;97842.94;;;-1.85;89.42
77431;BME280;66498;48.564;19.272;2022-12-29T20:56:27;97845.91;;;-1.80;89.01
77431;BME280;66498;48.564;19.272;2022-12-29T20:58:54;97854.03;;;-1.75;89.26
77431;BME280;66498;48.564;19.272;2022-12-29T21:01:21;97852.81;;;-1.61;88.37
77431;BME280;66498;48.564;19.272;2022-12-29T21:03:48;97851.47;;;-1.65;87.52
77431;BME280;66498;48.564;19.272;2022-12-29T21:06:14;97859.59;;;-1.70;87.14
77431;BME280;66498;48.564;19.272;2022-12-29T21:08:41;97841.69;;;-2.01;88.38
77431;BME280;66498;48.564;19.272;2022-12-29T21:11:08;97839.13;;;-2.01;88.73
77431;BME280;66498;48.564;19.272;2022-12-29T21:13:34;97840.91;;;-1.92;88.69
77431;BME280;66498;48.564;19.272;2022-12-29T21:16:05;97841.59;;;-1.80;88.75
77431;BME280;66498;48.564;19.272;2022-12-29T21:18:31;97839.13;;;-1.72;88.79
77431;BME280;66498;48.564;19.272;2022-12-29T21:21:05;97846.66;;;-1.22;86.32
77431;BME280;66498;48.564;19.272;2022-12-29T21:23:31;97847.78;;;-1.44;87.59
77431;BME280;66498;48.564;19.272;2022-12-29T21:25:57;97838.44;;;-1.54;88.40
77431;BME280;66498;48.564;19.272;2022-12-29T21:28:25;97837.19;;;-1.40;88.23
77431;BME280;66498;48.564;19.272;2022-12-29T21:30:51;97847.44;;;-1.02;86.79
77431;BME280;66498;48.564;19.272;2022-12-29T21:33:19;97853.13;;;-1.08;87.03
77431;BME280;66498;48.564;19.272;2022-12-29T21:35:46;97844.63;;;-1.18;87.87
77431;BME280;66498;48.564;19.272;2022-12-29T21:38:12;97837.28;;;-1.23;88.70
77431;BME280;66498;48.564;19.272;2022-12-29T21:40:38;97829.06;;;-1.36;88.90
77431;BME280;66498;48.564;19.272;2022-12-29T21:43:05;97821.50;;;-1.47;89.28
77431;BME280;66498;48.564;19.272;2022-12-29T21:45:30;97828.78;;;-1.33;88.78
77431;BME280;66498;48.564;19.272;2022-12-29T21:47:57;97827.06;;;-1.42;88.75
77431;BME280;66498;48.564;19.272;2022-12-29T21:50:43;97828.66;;;-1.41;88.78
77431;BME280;66498;48.564;19.272;2022-12-29T21:53:29;97823.16;;;-1.09;87.42
77431;BME280;66498;48.564;19.272;2022-12-29T21:56:16;97814.03;;;-1.50;87.88
77431;BME280;66498;48.564;19.272;2022-12-29T21:58:44;97816.25;;;-1.65;88.45
77431;BME280;66498;48.564;19.272;2022-12-29T22:01:31;97818.94;;;-1.67;87.75
77431;BME280;66498;48.564;19.272;2022-12-29T22:04:18;97811.09;;;-1.75;87.91
77431;BME280;66498;48.564;19.272;2022-12-29T22:07:04;97806.38;;;-1.70;87.18
77431;BME280;66498;48.564;19.272;2022-12-29T22:09:48;97797.56;;;-2.06;88.52
77431;BME280;66498;48.564;19.272;2022-12-29T22:12:33;97792.28;;;-2.04;88.43
77431;BME280;66498;48.564;19.272;2022-12-29T22:15:17;97801.22;;;-2.08;88.95
77431;BME280;66498;48.564;19.272;2022-12-29T22:17:44;97816.94;;;-1.92;88.49
77431;BME280;66498;48.564;19.272;2022-12-29T22:20:10;97826.28;;;-1.81;88.24
77431;BME280;66498;48.564;19.272;2022-12-29T22:22:36;97826.66;;;-1.57;85.62
77431;BME280;66498;48.564;19.272;2022-12-29T22:25:01;97827.50;;;-1.76;86.15
77431;BME280;66498;48.564;19.272;2022-12-29T22:27:27;97820.44;;;-1.74;86.65
77431;BME280;66498;48.564;19.272;2022-12-29T22:29:53;97792.94;;;-2.22;88.04
77431;BME280;66498;48.564;19.272;2022-12-29T22:32:19;97787.41;;;-2.36;88.65
77431;BME280;66498;48.564;19.272;2022-12-29T22:34:46;97781.84;;;-2.51;89.00
77431;BME280;66498;48.564;19.272;2022-12-29T22:37:12;97790.09;;;-2.48;88.50
77431;BME280;66498;48.564;19.272;2022-12-29T22:39:38;97794.69;;;-2.42;88.18
77431;BME280;66498;48.564;19.272;2022-12-29T22:42:04;97797.38;;;-2.53;88.54
77431;BME280;66498;48.564;19.272;2022-12-29T22:44:29;97788.06;;;-2.34;88.14
77431;BME280;66498;48.564;19.272;2022-12-29T22:46:55;97792.97;;;-2.12;86.84
77431;BME280;66498;48.564;19.272;2022-12-29T22:49:21;97797.69;;;-1.88;85.27
77431;BME280;66498;48.564;19.272;2022-12-29T22:51:46;97794.84;;;-2.04;86.03
77431;BME280;66498;48.564;19.272;2022-12-29T22:54:12;97796.75;;;-2.26;88.50
77431;BME280;66498;48.564;19.272;2022-12-29T22:56:38;97801.72;;;-2.24;88.70
77431;BME280;66498;48.564;19.272;2022-12-29T22:59:09;97793.75;;;-2.11;88.47
77431;BME280;66498;48.564;19.272;2022-12-29T23:01:34;97799.59;;;-2.00;87.97
77431;BME280;66498;48.564;19.272;2022-12-29T23:04:00;97793.75;;;-2.11;88.48
77431;BME280;66498;48.564;19.272;2022-12-29T23:06:26;97784.84;;;-2.27;88.79
77431;BME280;66498;48.564;19.272;2022-12-29T23:08:51;97785.47;;;-2.64;88.87
77431;BME280;66498;48.564;19.272;2022-12-29T23:11:20;97786.41;;;-2.45;88.41
77431;BME280;66498;48.564;19.272;2022-12-29T23:13:46;97787.00;;;-2.03;87.06
77431;BME280;66498;48.564;19.272;2022-12-29T23:16:14;97789.84;;;-2.16;88.09
77431;BME280;66498;48.564;19.272;2022-12-29T23:18:40;97776.44;;;-2.19;88.30
77431;BME280;66498;48.564;19.272;2022-12-29T23:21:06;97777.81;;;-2.05;87.96
77431;BME280;66498;48.564;19.272;2022-12-29T23:23:31;97781.16;;;-1.66;85.49
77431;BME280;66498;48.564;19.272;2022-12-29T23:26:17;97778.72;;;-1.68;85.96
77431;BME280;66498;48.564;19.272;2022-12-29T23:28:42;97773.06;;;-2.00;87.66
77431;BME280;66498;48.564;19.272;2022-12-29T23:31:08;97766.69;;;-2.06;87.91
77431;BME280;66498;48.564;19.272;2022-12-29T23:33:33;97771.81;;;-2.35;88.45
77431;BME280;66498;48.564;19.272;2022-12-29T23:35:59;97767.50;;;-2.44;88.53
77431;BME280;66498;48.564;19.272;2022-12-29T23:38:24;97763.97;;;-2.53;89.19
77431;BME280;66498;48.564;19.272;2022-12-29T23:40:52;97770.34;;;-2.38;88.67
77431;BME280;66498;48.564;19.272;2022-12-29T23:43:17;97767.63;;;-2.46;88.84
77431;BME280;66498;48.564;19.272;2022-12-29T23:45:43;97767.25;;;-2.41;88.63
77431;BME280;66498;48.564;19.272;2022-12-29T23:48:08;97775.63;;;-2.20;87.92
77431;BME280;66498;48.564;19.272;2022-12-29T23:50:38;97772.38;;;-2.12;87.58
77431;BME280;66498;48.564;19.272;2022-12-29T23:53:04;97782.53;;;-2.20;87.66
77431;BME280;66498;48.564;19.272;2022-12-29T23:55:29;97776.97;;;-2.25;87.91
77431;BME280;66498;48.564;19.272;2022-12-29T23:57:55;97770.91;;;-2.34;88.63
